sensor_id;sensor_type;location;lat;lon;timestamp;P1;durP1;ratioP1;P2;durP2;ratioP2
2386;SDS011;49473;50.772;8.768;2023-08-31T00:01:23;12.80;;;10.93;;
2386;SDS011;49473;50.772;8.768;2023-08-31T00:03:50;14.13;;;10.50;;
2386;SDS011;49473;50.772;8.768;2023-08-31T00:06:18;12.80;;;10.30;;
2386;SDS011;49473;50.772;8.768;2023-08-31T00:08:46;11.47;;;10.37;;
2386;SDS011;49473;50.772;8.768;2023-08-31T00:11:13;11.43;;;10.27;;
2386;SDS011;49473;50.772;8.768;2023-08-31T00:13:41;12.77;;;11.57;;
2386;SDS011;49473;50.772;8.768;2023-08-31T00:16:09;12.63;;;11.40;;
2386;SDS011;49473;50.772;8.768;2023-08-31T00:18:37;13.27;;;11.97;;
2386;SDS011;49473;50.772;8.768;2023-08-31T00:21:04;17.97;;;11.53;;
2386;SDS011;49473;50.772;8.768;2023-08-31T00:23:31;13.30;;;11.33;;
2386;SDS011;49473;50.772;8.768;2023-08-31T00:25:58;13.17;;;11.23;;
2386;SDS011;49473;50.772;8.768;2023-08-31T00:28:24;12.83;;;11.60;;
2386;SDS011;49473;50.772;8.768;2023-08-31T00:30:52;15.23;;;12.77;;
2386;SDS011;49473;50.772;8.768;2023-08-31T00:33:20;14.97;;;13.10;;
2386;SDS011;49473;50.772;8.768;2023-08-31T00:35:47;17.73;;;14.37;;
2386;SDS011;49473;50.772;8.768;2023-08-31T00:38:13;15.60;;;14.00;;
2386;SDS011;49473;50.772;8.768;2023-08-31T00:40:41;21.73;;;15.10;;
2386;SDS011;49473;50.772;8.768;2023-08-31T00:43:09;19.63;;;14.63;;
2386;SDS011;49473;50.772;8.768;2023-08-31T00:45:36;18.87;;;13.40;;
2386;SDS011;49473;50.772;8.768;2023-08-31T00:48:05;15.73;;;14.03;;
2386;SDS011;49473;50.772;8.768;2023-08-31T00:50:33;18.10;;;15.60;;
2386;SDS011;49473;50.772;8.768;2023-08-31T00:53:00;14.50;;;12.53;;
2386;SDS011;49473;50.772;8.768;2023-08-31T00:55:28;14.63;;;13.00;;
2386;SDS011;49473;50.772;8.768;2023-08-31T00:57:55;20.33;;;13.60;;
2386;SDS011;49473;50.772;8.768;2023-08-31T01:00:22;12.30;;;11.10;;
2386;SDS011;49473;50.772;8.768;2023-08-31T01:02:59;12.20;;;10.97;;
2386;SDS011;49473;50.772;8.768;2023-08-31T01:05:37;11.87;;;10.77;;
2386;SDS011;49473;50.772;8.768;2023-08-31T01:08:14;13.17;;;10.60;;
2386;SDS011;49473;50.772;8.768;2023-08-31T01:10:55;12.83;;;11.53;;
2386;SDS011;49473;50.772;8.768;2023-08-31T01:13:30;12.83;;;10.77;;
2386;SDS011;49473;50.772;8.768;2023-08-31T01:15:59;12.73;;;11.30;;
2386;SDS011;49473;50.772;8.768;2023-08-31T01:18:29;12.97;;;11.57;;
2386;SDS011;49473;50.772;8.768;2023-08-31T01:21:02;13.80;;;12.40;;
2386;SDS011;49473;50.772;8.768;2023-08-31T01:23:44;12.73;;;11.43;;
2386;SDS011;49473;50.772;8.768;2023-08-31T01:26:16;13.40;;;10.80;;
2386;SDS011;49473;50.772;8.768;2023-08-31T01:28:43;13.53;;;11.30;;
2386;SDS011;49473;50.772;8.768;2023-08-31T01:31:10;15.20;;;11.57;;
2386;SDS011;49473;50.772;8.768;2023-08-31T01:33:37;14.47;;;13.07;;
2386;SDS011;49473;50.772;8.768;2023-08-31T01:36:04;12.97;;;11.63;;
2386;SDS011;49473;50.772;8.768;2023-08-31T01:38:34;15.23;;;11.87;;
2386;SDS011;49473;50.772;8.768;2023-08-31T01:41:06;11.40;;;10.20;;
2386;SDS011;49473;50.772;8.768;2023-08-31T01:43:36;11.40;;;9.90;;
2386;SDS011;49473;50.772;8.768;2023-08-31T01:46:06;11.30;;;10.00;;
2386;SDS011;49473;50.772;8.768;2023-08-31T01:48:37;10.57;;;8.27;;
2386;SDS011;49473;50.772;8.768;2023-08-31T01:51:05;10.77;;;8.47;;
2386;SDS011;49473;50.772;8.768;2023-08-31T01:53:32;10.30;;;9.40;;
2386;SDS011;49473;50.772;8.768;2023-08-31T01:55:59;10.03;;;9.03;;
2386;SDS011;49473;50.772;8.768;2023-08-31T01:58:27;11.87;;;10.70;;
2386;SDS011;49473;50.772;8.768;2023-08-31T02:00:54;11.20;;;9.90;;
2386;SDS011;49473;50.772;8.768;2023-08-31T02:03:21;17.00;;;11.43;;
2386;SDS011;49473;50.772;8.768;2023-08-31T02:05:48;13.67;;;12.17;;
2386;SDS011;49473;50.772;8.768;2023-08-31T02:08:15;14.30;;;11.97;;
2386;SDS011;49473;50.772;8.768;2023-08-31T02:10:43;14.10;;;10.40;;
2386;SDS011;49473;50.772;8.768;2023-08-31T02:13:09;10.80;;;9.70;;
2386;SDS011;49473;50.772;8.768;2023-08-31T02:15:38;11.30;;;10.17;;
2386;SDS011;49473;50.772;8.768;2023-08-31T02:18:05;11.53;;;9.57;;
2386;SDS011;49473;50.772;8.768;2023-08-31T02:20:33;12.07;;;10.73;;
2386;SDS011;49473;50.772;8.768;2023-08-31T02:23:00;14.57;;;9.30;;
2386;SDS011;49473;50.772;8.768;2023-08-31T02:25:27;11.13;;;10.03;;
2386;SDS011;49473;50.772;8.768;2023-08-31T02:27:53;15.00;;;10.07;;
2386;SDS011;49473;50.772;8.768;2023-08-31T02:30:20;12.03;;;10.67;;
2386;SDS011;49473;50.772;8.768;2023-08-31T02:32:49;13.43;;;10.53;;
2386;SDS011;49473;50.772;8.768;2023-08-31T02:35:15;9.93;;;8.93;;
2386;SDS011;49473;50.772;8.768;2023-08-31T02:37:42;9.33;;;8.37;;
2386;SDS011;49473;50.772;8.768;2023-08-31T02:40:09;9.53;;;8.60;;
2386;SDS011;49473;50.772;8.768;2023-08-31T02:42:36;10.53;;;9.57;;
2386;SDS011;49473;50.772;8.768;2023-08-31T02:45:03;9.93;;;8.97;;
2386;SDS011;49473;50.772;8.768;2023-08-31T02:47:30;10.60;;;9.20;;
2386;SDS011;49473;50.772;8.768;2023-08-31T02:49:58;11.37;;;10.27;;
2386;SDS011;49473;50.772;8.768;2023-08-31T02:52:25;13.40;;;11.47;;
2386;SDS011;49473;50.772;8.768;2023-08-31T02:54:52;12.40;;;11.10;;
2386;SDS011;49473;50.772;8.768;2023-08-31T02:57:19;11.83;;;10.50;;
2386;SDS011;49473;50.772;8.768;2023-08-31T02:59:49;11.73;;;10.40;;
2386;SDS011;49473;50.772;8.768;2023-08-31T03:02:16;17.17;;;14.30;;
2386;SDS011;49473;50.772;8.768;2023-08-31T03:04:42;13.60;;;11.37;;
2386;SDS011;49473;50.772;8.768;2023-08-31T03:07:11;17.63;;;13.73;;
2386;SDS011;49473;50.772;8.768;2023-08-31T03:09:40;13.43;;;12.10;;
2386;SDS011;49473;50.772;8.768;2023-08-31T03:12:07;16.00;;;11.70;;
2386;SDS011;49473;50.772;8.768;2023-08-31T03:14:33;12.10;;;10.77;;
2386;SDS011;49473;50.772;8.768;2023-08-31T03:17:00;10.77;;;9.67;;
2386;SDS011;49473;50.772;8.768;2023-08-31T03:19:28;10.73;;;9.67;;
2386;SDS011;49473;50.772;8.768;2023-08-31T03:21:55;12.97;;;10.40;;
2386;SDS011;49473;50.772;8.768;2023-08-31T03:24:23;11.50;;;10.30;;
2386;SDS011;49473;50.772;8.768;2023-08-31T03:26:49;12.73;;;10.90;;
2386;SDS011;49473;50.772;8.768;2023-08-31T03:29:16;15.53;;;11.50;;
2386;SDS011;49473;50.772;8.768;2023-08-31T03:31:43;15.23;;;13.13;;
2386;SDS011;49473;50.772;8.768;2023-08-31T03:34:10;21.20;;;14.97;;
2386;SDS011;49473;50.772;8.768;2023-08-31T03:36:37;17.37;;;15.37;;
2386;SDS011;49473;50.772;8.768;2023-08-31T03:39:03;17.97;;;13.93;;
2386;SDS011;49473;50.772;8.768;2023-08-31T03:41:32;15.23;;;13.33;;
2386;SDS011;49473;50.772;8.768;2023-08-31T03:44:00;15.80;;;14.23;;
2386;SDS011;49473;50.772;8.768;2023-08-31T03:46:27;15.70;;;14.00;;
2386;SDS011;49473;50.772;8.768;2023-08-31T03:48:54;15.40;;;14.00;;
2386;SDS011;49473;50.772;8.768;2023-08-31T03:51:21;14.87;;;13.10;;
2386;SDS011;49473;50.772;8.768;2023-08-31T03:53:47;15.30;;;13.70;;
2386;SDS011;49473;50.772;8.768;2023-08-31T03:56:14;13.90;;;12.60;;
2386;SDS011;49473;50.772;8.768;2023-08-31T03:58:42;17.23;;;14.30;;
2386;SDS011;49473;50.772;8.768;2023-08-31T04:01:09;13.77;;;12.30;;
2386;SDS011;49473;50.772;8.768;2023-08-31T04:03:37;14.57;;;13.07;;
2386;SDS011;49473;50.772;8.768;2023-08-31T04:06:04;13.73;;;12.33;;
2386;SDS011;49473;50.772;8.768;2023-08-31T04:08:31;13.93;;;12.73;;
2386;SDS011;49473;50.772;8.768;2023-08-31T04:10:58;15.60;;;13.60;;
2386;SDS011;49473;50.772;8.768;2023-08-31T04:13:24;15.23;;;13.50;;
2386;SDS011;49473;50.772;8.768;2023-08-31T04:15:53;13.43;;;12.13;;
2386;SDS011;49473;50.772;8.768;2023-08-31T04:18:20;14.20;;;12.47;;
2386;SDS011;49473;50.772;8.768;2023-08-31T04:20:48;14.27;;;12.50;;
2386;SDS011;49473;50.772;8.768;2023-08-31T04:23:16;18.30;;;12.77;;
2386;SDS011;49473;50.772;8.768;2023-08-31T04:25:45;13.83;;;11.97;;
2386;SDS011;49473;50.772;8.768;2023-08-31T04:28:12;12.50;;;11.40;;
2386;SDS011;49473;50.772;8.768;2023-08-31T04:30:39;12.83;;;11.53;;
2386;SDS011;49473;50.772;8.768;2023-08-31T04:33:07;13.00;;;11.60;;
2386;SDS011;49473;50.772;8.768;2023-08-31T04:35:34;12.97;;;11.77;;
2386;SDS011;49473;50.772;8.768;2023-08-31T04:38:01;12.07;;;10.87;;
2386;SDS011;49473;50.772;8.768;2023-08-31T04:40:27;12.30;;;11.03;;
2386;SDS011;49473;50.772;8.768;2023-08-31T04:42:55;13.67;;;11.80;;
2386;SDS011;49473;50.772;8.768;2023-08-31T04:45:21;13.83;;;12.40;;
2386;SDS011;49473;50.772;8.768;2023-08-31T04:47:48;15.00;;;11.90;;
2386;SDS011;49473;50.772;8.768;2023-08-31T04:50:17;13.27;;;11.70;;
2386;SDS011;49473;50.772;8.768;2023-08-31T04:52:44;15.67;;;13.00;;
2386;SDS011;49473;50.772;8.768;2023-08-31T04:55:12;15.73;;;12.50;;
2386;SDS011;49473;50.772;8.768;2023-08-31T04:57:39;22.00;;;14.40;;
2386;SDS011;49473;50.772;8.768;2023-08-31T05:00:06;20.77;;;14.03;;
2386;SDS011;49473;50.772;8.768;2023-08-31T05:02:35;17.97;;;14.43;;
2386;SDS011;49473;50.772;8.768;2023-08-31T05:05:01;16.40;;;13.80;;
2386;SDS011;49473;50.772;8.768;2023-08-31T05:07:30;14.20;;;12.80;;
2386;SDS011;49473;50.772;8.768;2023-08-31T05:09:57;12.93;;;11.60;;
2386;SDS011;49473;50.772;8.768;2023-08-31T05:12:24;15.03;;;13.30;;
2386;SDS011;49473;50.772;8.768;2023-08-31T05:14:50;12.70;;;11.50;;
2386;SDS011;49473;50.772;8.768;2023-08-31T05:17:17;13.67;;;12.47;;
2386;SDS011;49473;50.772;8.768;2023-08-31T05:19:44;13.10;;;11.30;;
2386;SDS011;49473;50.772;8.768;2023-08-31T05:22:12;12.20;;;11.00;;
2386;SDS011;49473;50.772;8.768;2023-08-31T05:24:40;12.47;;;11.30;;
2386;SDS011;49473;50.772;8.768;2023-08-31T05:27:07;12.43;;;10.97;;
2386;SDS011;49473;50.772;8.768;2023-08-31T05:29:34;11.20;;;10.10;;
2386;SDS011;49473;50.772;8.768;2023-08-31T05:32:00;10.27;;;9.33;;
2386;SDS011;49473;50.772;8.768;2023-08-31T05:34:27;8.93;;;8.10;;
2386;SDS011;49473;50.772;8.768;2023-08-31T05:36:55;9.30;;;8.60;;
2386;SDS011;49473;50.772;8.768;2023-08-31T05:39:22;8.73;;;7.93;;
2386;SDS011;49473;50.772;8.768;2023-08-31T05:41:50;8.10;;;7.33;;
2386;SDS011;49473;50.772;8.768;2023-08-31T05:44:17;8.73;;;7.83;;
2386;SDS011;49473;50.772;8.768;2023-08-31T05:46:44;9.03;;;8.23;;
2386;SDS011;49473;50.772;8.768;2023-08-31T05:49:10;8.93;;;8.10;;
2386;SDS011;49473;50.772;8.768;2023-08-31T05:51:37;9.37;;;7.97;;
2386;SDS011;49473;50.772;8.768;2023-08-31T05:54:04;10.53;;;8.77;;
2386;SDS011;49473;50.772;8.768;2023-08-31T05:56:35;9.87;;;7.80;;
2386;SDS011;49473;50.772;8.768;2023-08-31T05:59:04;8.20;;;7.50;;
2386;SDS011;49473;50.772;8.768;2023-08-31T06:01:31;8.17;;;7.50;;
2386;SDS011;49473;50.772;8.768;2023-08-31T06:03:57;8.63;;;7.17;;
2386;SDS011;49473;50.772;8.768;2023-08-31T06:06:24;8.30;;;7.47;;
2386;SDS011;49473;50.772;8.768;2023-08-31T06:08:51;7.90;;;7.20;;
2386;SDS011;49473;50.772;8.768;2023-08-31T06:11:18;8.67;;;6.50;;
2386;SDS011;49473;50.772;8.768;2023-08-31T06:13:46;5.33;;;4.93;;
2386;SDS011;49473;50.772;8.768;2023-08-31T06:16:14;5.00;;;4.70;;
2386;SDS011;49473;50.772;8.768;2023-08-31T06:18:41;6.50;;;4.97;;
2386;SDS011;49473;50.772;8.768;2023-08-31T06:21:08;6.60;;;4.27;;
2386;SDS011;49473;50.772;8.768;2023-08-31T06:23:35;5.07;;;4.67;;
2386;SDS011;49473;50.772;8.768;2023-08-31T06:26:02;5.67;;;5.13;;
2386;SDS011;49473;50.772;8.768;2023-08-31T06:28:28;5.03;;;4.53;;
2386;SDS011;49473;50.772;8.768;2023-08-31T06:30:55;5.23;;;4.70;;
2386;SDS011;49473;50.772;8.768;2023-08-31T06:33:23;6.67;;;5.40;;
2386;SDS011;49473;50.772;8.768;2023-08-31T06:35:50;4.97;;;4.57;;
2386;SDS011;49473;50.772;8.768;2023-08-31T06:38:17;5.53;;;5.00;;
2386;SDS011;49473;50.772;8.768;2023-08-31T06:40:44;5.43;;;5.03;;
2386;SDS011;49473;50.772;8.768;2023-08-31T06:43:11;5.03;;;4.53;;
2386;SDS011;49473;50.772;8.768;2023-08-31T06:45:37;5.17;;;4.77;;
2386;SDS011;49473;50.772;8.768;2023-08-31T06:48:05;4.77;;;4.47;;
2386;SDS011;49473;50.772;8.768;2023-08-31T06:50:34;5.23;;;4.83;;
2386;SDS011;49473;50.772;8.768;2023-08-31T06:53:01;5.13;;;4.80;;
2386;SDS011;49473;50.772;8.768;2023-08-31T06:55:28;4.67;;;4.27;;
2386;SDS011;49473;50.772;8.768;2023-08-31T06:57:56;5.00;;;4.60;;
2386;SDS011;49473;50.772;8.768;2023-08-31T07:00:23;4.67;;;4.27;;
2386;SDS011;49473;50.772;8.768;2023-08-31T07:02:50;5.33;;;4.93;;
2386;SDS011;49473;50.772;8.768;2023-08-31T07:05:17;4.93;;;4.43;;
2386;SDS011;49473;50.772;8.768;2023-08-31T07:07:51;5.30;;;4.33;;
2386;SDS011;49473;50.772;8.768;2023-08-31T07:10:18;4.10;;;3.67;;
2386;SDS011;49473;50.772;8.768;2023-08-31T07:12:45;3.53;;;3.33;;
2386;SDS011;49473;50.772;8.768;2023-08-31T07:15:12;4.37;;;3.80;;
2386;SDS011;49473;50.772;8.768;2023-08-31T07:17:39;3.73;;;3.43;;
2386;SDS011;49473;50.772;8.768;2023-08-31T07:20:06;3.43;;;3.13;;
2386;SDS011;49473;50.772;8.768;2023-08-31T07:22:34;6.17;;;3.57;;
2386;SDS011;49473;50.772;8.768;2023-08-31T07:25:02;3.60;;;3.30;;
2386;SDS011;49473;50.772;8.768;2023-08-31T07:27:31;3.60;;;3.30;;
2386;SDS011;49473;50.772;8.768;2023-08-31T07:29:57;4.00;;;3.50;;
2386;SDS011;49473;50.772;8.768;2023-08-31T07:32:24;3.70;;;3.30;;
2386;SDS011;49473;50.772;8.768;2023-08-31T07:34:51;3.47;;;3.27;;
2386;SDS011;49473;50.772;8.768;2023-08-31T07:37:17;3.10;;;2.80;;
2386;SDS011;49473;50.772;8.768;2023-08-31T07:39:44;2.93;;;2.73;;
2386;SDS011;49473;50.772;8.768;2023-08-31T07:42:12;3.17;;;2.97;;
2386;SDS011;49473;50.772;8.768;2023-08-31T07:44:39;2.63;;;2.43;;
2386;SDS011;49473;50.772;8.768;2023-08-31T07:47:06;4.10;;;2.70;;
2386;SDS011;49473;50.772;8.768;2023-08-31T07:49:33;3.87;;;3.47;;
2386;SDS011;49473;50.772;8.768;2023-08-31T07:52:00;2.80;;;2.60;;
2386;SDS011;49473;50.772;8.768;2023-08-31T07:54:28;3.50;;;2.57;;
2386;SDS011;49473;50.772;8.768;2023-08-31T07:56:54;2.57;;;2.37;;
2386;SDS011;49473;50.772;8.768;2023-08-31T07:59:22;2.27;;;2.10;;
2386;SDS011;49473;50.772;8.768;2023-08-31T08:01:49;3.80;;;2.50;;
2386;SDS011;49473;50.772;8.768;2023-08-31T08:04:16;2.60;;;2.40;;
2386;SDS011;49473;50.772;8.768;2023-08-31T08:06:44;3.00;;;2.33;;
2386;SDS011;49473;50.772;8.768;2023-08-31T08:09:11;3.63;;;2.00;;
2386;SDS011;49473;50.772;8.768;2023-08-31T08:11:38;2.50;;;2.30;;
2386;SDS011;49473;50.772;8.768;2023-08-31T08:14:05;4.50;;;2.83;;
2386;SDS011;49473;50.772;8.768;2023-08-31T08:16:33;2.80;;;2.47;;
2386;SDS011;49473;50.772;8.768;2023-08-31T08:19:00;5.57;;;2.50;;
2386;SDS011;49473;50.772;8.768;2023-08-31T08:21:27;2.00;;;1.90;;
2386;SDS011;49473;50.772;8.768;2023-08-31T08:23:54;3.40;;;2.50;;
2386;SDS011;49473;50.772;8.768;2023-08-31T08:26:20;2.40;;;2.07;;
2386;SDS011;49473;50.772;8.768;2023-08-31T08:28:47;2.97;;;2.43;;
2386;SDS011;49473;50.772;8.768;2023-08-31T08:31:14;3.70;;;2.30;;
2386;SDS011;49473;50.772;8.768;2023-08-31T08:33:42;3.60;;;2.17;;
2386;SDS011;49473;50.772;8.768;2023-08-31T08:36:09;1.90;;;1.70;;
2386;SDS011;49473;50.772;8.768;2023-08-31T08:38:35;2.30;;;2.07;;
2386;SDS011;49473;50.772;8.768;2023-08-31T08:41:05;6.60;;;2.27;;
2386;SDS011;49473;50.772;8.768;2023-08-31T08:43:33;4.70;;;3.40;;
2386;SDS011;49473;50.772;8.768;2023-08-31T08:46:00;2.60;;;2.40;;
2386;SDS011;49473;50.772;8.768;2023-08-31T08:48:30;5.60;;;2.50;;
2386;SDS011;49473;50.772;8.768;2023-08-31T08:51:01;4.30;;;2.10;;
2386;SDS011;49473;50.772;8.768;2023-08-31T08:53:28;3.03;;;2.60;;
2386;SDS011;49473;50.772;8.768;2023-08-31T08:55:55;4.10;;;2.03;;
2386;SDS011;49473;50.772;8.768;2023-08-31T08:58:22;1.80;;;1.60;;
2386;SDS011;49473;50.772;8.768;2023-08-31T09:00:49;1.97;;;1.47;;
2386;SDS011;49473;50.772;8.768;2023-08-31T09:03:17;1.67;;;1.57;;
2386;SDS011;49473;50.772;8.768;2023-08-31T09:05:44;3.47;;;2.00;;
2386;SDS011;49473;50.772;8.768;2023-08-31T09:08:13;3.90;;;1.80;;
2386;SDS011;49473;50.772;8.768;2023-08-31T09:10:40;2.40;;;1.30;;
2386;SDS011;49473;50.772;8.768;2023-08-31T09:13:08;3.53;;;1.27;;
2386;SDS011;49473;50.772;8.768;2023-08-31T09:15:36;3.00;;;1.50;;
2386;SDS011;49473;50.772;8.768;2023-08-31T09:18:05;1.63;;;1.40;;
2386;SDS011;49473;50.772;8.768;2023-08-31T09:20:31;1.47;;;1.00;;
2386;SDS011;49473;50.772;8.768;2023-08-31T09:23:08;2.13;;;1.57;;
2386;SDS011;49473;50.772;8.768;2023-08-31T09:25:39;1.53;;;1.43;;
2386;SDS011;49473;50.772;8.768;2023-08-31T09:28:08;1.57;;;1.30;;
2386;SDS011;49473;50.772;8.768;2023-08-31T09:30:35;1.83;;;1.40;;
2386;SDS011;49473;50.772;8.768;2023-08-31T09:33:03;3.13;;;1.23;;
2386;SDS011;49473;50.772;8.768;2023-08-31T09:35:30;2.83;;;1.30;;
2386;SDS011;49473;50.772;8.768;2023-08-31T09:37:57;1.57;;;1.37;;
2386;SDS011;49473;50.772;8.768;2023-08-31T09:40:24;1.30;;;1.07;;
2386;SDS011;49473;50.772;8.768;2023-08-31T09:42:52;1.70;;;0.93;;
2386;SDS011;49473;50.772;8.768;2023-08-31T09:45:24;1.40;;;1.30;;
2386;SDS011;49473;50.772;8.768;2023-08-31T09:47:55;1.70;;;1.07;;
2386;SDS011;49473;50.772;8.768;2023-08-31T09:50:22;1.80;;;0.90;;
2386;SDS011;49473;50.772;8.768;2023-08-31T09:52:49;0.80;;;0.70;;
2386;SDS011;49473;50.772;8.768;2023-08-31T09:55:19;1.90;;;1.10;;
2386;SDS011;49473;50.772;8.768;2023-08-31T09:57:48;0.97;;;0.97;;
2386;SDS011;49473;50.772;8.768;2023-08-31T10:00:18;1.03;;;1.00;;
2386;SDS011;49473;50.772;8.768;2023-08-31T10:02:45;1.87;;;1.00;;
2386;SDS011;49473;50.772;8.768;2023-08-31T10:05:13;2.13;;;1.30;;
2386;SDS011;49473;50.772;8.768;2023-08-31T10:07:40;1.30;;;1.10;;
2386;SDS011;49473;50.772;8.768;2023-08-31T10:10:07;1.90;;;1.00;;
2386;SDS011;49473;50.772;8.768;2023-08-31T10:12:35;3.40;;;1.27;;
2386;SDS011;49473;50.772;8.768;2023-08-31T10:15:01;1.70;;;1.10;;
2386;SDS011;49473;50.772;8.768;2023-08-31T10:17:32;2.00;;;1.27;;
2386;SDS011;49473;50.772;8.768;2023-08-31T10:19:59;1.33;;;1.10;;
2386;SDS011;49473;50.772;8.768;2023-08-31T10:22:26;1.27;;;1.13;;
2386;SDS011;49473;50.772;8.768;2023-08-31T10:24:56;1.77;;;1.10;;
2386;SDS011;49473;50.772;8.768;2023-08-31T10:27:23;1.43;;;1.30;;
2386;SDS011;49473;50.772;8.768;2023-08-31T10:29:50;1.73;;;1.17;;
2386;SDS011;49473;50.772;8.768;2023-08-31T10:32:17;1.93;;;1.20;;
2386;SDS011;49473;50.772;8.768;2023-08-31T10:34:45;1.40;;;1.13;;
2386;SDS011;49473;50.772;8.768;2023-08-31T10:37:30;2.30;;;1.50;;
2386;SDS011;49473;50.772;8.768;2023-08-31T10:40:06;1.13;;;1.03;;
2386;SDS011;49473;50.772;8.768;2023-08-31T10:42:40;3.37;;;1.20;;
2386;SDS011;49473;50.772;8.768;2023-08-31T10:45:08;1.50;;;1.40;;
2386;SDS011;49473;50.772;8.768;2023-08-31T10:47:36;1.17;;;1.07;;
2386;SDS011;49473;50.772;8.768;2023-08-31T10:50:16;1.60;;;1.37;;
2386;SDS011;49473;50.772;8.768;2023-08-31T10:52:47;1.00;;;0.97;;
2386;SDS011;49473;50.772;8.768;2023-08-31T10:55:15;2.30;;;1.20;;
2386;SDS011;49473;50.772;8.768;2023-08-31T10:57:41;2.10;;;1.53;;
2386;SDS011;49473;50.772;8.768;2023-08-31T11:00:08;1.70;;;1.10;;
2386;SDS011;49473;50.772;8.768;2023-08-31T11:02:37;4.93;;;2.07;;
2386;SDS011;49473;50.772;8.768;2023-08-31T11:05:08;1.80;;;1.53;;
2386;SDS011;49473;50.772;8.768;2023-08-31T11:07:37;2.73;;;1.53;;
2386;SDS011;49473;50.772;8.768;2023-08-31T11:10:09;3.73;;;1.30;;
2386;SDS011;49473;50.772;8.768;2023-08-31T11:12:37;2.93;;;1.23;;
2386;SDS011;49473;50.772;8.768;2023-08-31T11:15:05;2.70;;;1.30;;
2386;SDS011;49473;50.772;8.768;2023-08-31T11:17:32;1.60;;;1.07;;
2386;SDS011;49473;50.772;8.768;2023-08-31T11:20:00;1.90;;;1.30;;
2386;SDS011;49473;50.772;8.768;2023-08-31T11:22:30;3.77;;;1.33;;
2386;SDS011;49473;50.772;8.768;2023-08-31T11:24:58;3.30;;;0.90;;
2386;SDS011;49473;50.772;8.768;2023-08-31T11:27:25;2.60;;;1.37;;
2386;SDS011;49473;50.772;8.768;2023-08-31T11:29:52;1.37;;;1.20;;
2386;SDS011;49473;50.772;8.768;2023-08-31T11:32:18;1.47;;;1.37;;
2386;SDS011;49473;50.772;8.768;2023-08-31T11:34:45;3.73;;;1.23;;
2386;SDS011;49473;50.772;8.768;2023-08-31T11:37:12;2.27;;;1.20;;
2386;SDS011;49473;50.772;8.768;2023-08-31T11:39:42;0.90;;;0.90;;
2386;SDS011;49473;50.772;8.768;2023-08-31T11:42:15;1.17;;;1.07;;
2386;SDS011;49473;50.772;8.768;2023-08-31T11:44:43;1.40;;;1.20;;
2386;SDS011;49473;50.772;8.768;2023-08-31T11:47:11;2.40;;;1.50;;
2386;SDS011;49473;50.772;8.768;2023-08-31T11:49:38;1.10;;;1.00;;
2386;SDS011;49473;50.772;8.768;2023-08-31T11:52:05;1.80;;;1.40;;
2386;SDS011;49473;50.772;8.768;2023-08-31T11:54:32;1.63;;;1.20;;
2386;SDS011;49473;50.772;8.768;2023-08-31T11:56:59;1.83;;;1.10;;
2386;SDS011;49473;50.772;8.768;2023-08-31T11:59:27;1.77;;;1.17;;
2386;SDS011;49473;50.772;8.768;2023-08-31T12:01:54;3.07;;;1.20;;
2386;SDS011;49473;50.772;8.768;2023-08-31T12:04:23;1.50;;;1.40;;
2386;SDS011;49473;50.772;8.768;2023-08-31T12:06:50;2.63;;;1.53;;
2386;SDS011;49473;50.772;8.768;2023-08-31T12:09:18;3.33;;;1.57;;
2386;SDS011;49473;50.772;8.768;2023-08-31T12:11:49;3.40;;;1.20;;
2386;SDS011;49473;50.772;8.768;2023-08-31T12:14:20;2.73;;;1.50;;
2386;SDS011;49473;50.772;8.768;2023-08-31T12:16:50;2.93;;;1.40;;
2386;SDS011;49473;50.772;8.768;2023-08-31T12:19:18;2.37;;;1.43;;
2386;SDS011;49473;50.772;8.768;2023-08-31T12:21:45;2.00;;;1.57;;
2386;SDS011;49473;50.772;8.768;2023-08-31T12:24:12;2.67;;;1.80;;
2386;SDS011;49473;50.772;8.768;2023-08-31T12:26:41;1.50;;;1.40;;
2386;SDS011;49473;50.772;8.768;2023-08-31T12:29:08;1.60;;;1.33;;
2386;SDS011;49473;50.772;8.768;2023-08-31T12:31:35;1.37;;;1.27;;
2386;SDS011;49473;50.772;8.768;2023-08-31T12:34:03;2.70;;;1.50;;
2386;SDS011;49473;50.772;8.768;2023-08-31T12:36:31;1.87;;;1.30;;
2386;SDS011;49473;50.772;8.768;2023-08-31T12:38:58;3.20;;;1.20;;
2386;SDS011;49473;50.772;8.768;2023-08-31T12:41:26;2.23;;;1.30;;
2386;SDS011;49473;50.772;8.768;2023-08-31T12:43:54;3.37;;;1.13;;
2386;SDS011;49473;50.772;8.768;2023-08-31T12:46:20;4.67;;;1.43;;
2386;SDS011;49473;50.772;8.768;2023-08-31T12:48:47;2.10;;;1.40;;
2386;SDS011;49473;50.772;8.768;2023-08-31T12:51:16;1.50;;;1.40;;
2386;SDS011;49473;50.772;8.768;2023-08-31T12:53:43;1.80;;;1.40;;
2386;SDS011;49473;50.772;8.768;2023-08-31T12:56:09;2.03;;;1.67;;
2386;SDS011;49473;50.772;8.768;2023-08-31T12:58:37;1.47;;;1.00;;
2386;SDS011;49473;50.772;8.768;2023-08-31T13:01:04;1.30;;;1.00;;
2386;SDS011;49473;50.772;8.768;2023-08-31T13:03:30;1.87;;;1.27;;
2386;SDS011;49473;50.772;8.768;2023-08-31T13:05:57;1.67;;;1.23;;
2386;SDS011;49473;50.772;8.768;2023-08-31T13:08:25;3.73;;;1.50;;
2386;SDS011;49473;50.772;8.768;2023-08-31T13:10:53;2.57;;;1.80;;
2386;SDS011;49473;50.772;8.768;2023-08-31T13:13:21;2.43;;;1.40;;
2386;SDS011;49473;50.772;8.768;2023-08-31T13:15:48;4.43;;;1.43;;
2386;SDS011;49473;50.772;8.768;2023-08-31T13:18:15;3.03;;;1.20;;
2386;SDS011;49473;50.772;8.768;2023-08-31T13:20:48;1.53;;;1.43;;
2386;SDS011;49473;50.772;8.768;2023-08-31T13:23:15;2.33;;;1.83;;
2386;SDS011;49473;50.772;8.768;2023-08-31T13:25:43;4.00;;;1.73;;
2386;SDS011;49473;50.772;8.768;2023-08-31T13:28:10;1.70;;;1.07;;
2386;SDS011;49473;50.772;8.768;2023-08-31T13:30:37;3.83;;;2.00;;
2386;SDS011;49473;50.772;8.768;2023-08-31T13:33:03;2.40;;;1.60;;
2386;SDS011;49473;50.772;8.768;2023-08-31T13:35:30;2.23;;;1.50;;
2386;SDS011;49473;50.772;8.768;2023-08-31T13:37:57;4.87;;;1.80;;
2386;SDS011;49473;50.772;8.768;2023-08-31T13:40:24;4.57;;;1.50;;
2386;SDS011;49473;50.772;8.768;2023-08-31T13:42:54;2.30;;;1.77;;
2386;SDS011;49473;50.772;8.768;2023-08-31T13:45:22;1.80;;;1.20;;
2386;SDS011;49473;50.772;8.768;2023-08-31T13:47:49;2.10;;;1.40;;
2386;SDS011;49473;50.772;8.768;2023-08-31T13:50:15;3.53;;;1.63;;
2386;SDS011;49473;50.772;8.768;2023-08-31T13:52:42;2.20;;;1.77;;
2386;SDS011;49473;50.772;8.768;2023-08-31T13:55:09;3.80;;;1.80;;
2386;SDS011;49473;50.772;8.768;2023-08-31T13:57:36;1.77;;;1.50;;
2386;SDS011;49473;50.772;8.768;2023-08-31T14:00:05;2.33;;;1.60;;
2386;SDS011;49473;50.772;8.768;2023-08-31T14:02:34;2.50;;;1.40;;
2386;SDS011;49473;50.772;8.768;2023-08-31T14:05:01;2.60;;;1.67;;
2386;SDS011;49473;50.772;8.768;2023-08-31T14:07:28;1.67;;;1.20;;
2386;SDS011;49473;50.772;8.768;2023-08-31T14:09:55;1.93;;;1.50;;
2386;SDS011;49473;50.772;8.768;2023-08-31T14:12:23;2.30;;;1.93;;
2386;SDS011;49473;50.772;8.768;2023-08-31T14:14:50;8.63;;;1.97;;
2386;SDS011;49473;50.772;8.768;2023-08-31T14:17:19;1.90;;;1.57;;
2386;SDS011;49473;50.772;8.768;2023-08-31T14:19:45;3.10;;;1.50;;
2386;SDS011;49473;50.772;8.768;2023-08-31T14:22:12;1.50;;;1.40;;
2386;SDS011;49473;50.772;8.768;2023-08-31T14:24:39;2.00;;;1.60;;
2386;SDS011;49473;50.772;8.768;2023-08-31T14:27:05;1.73;;;1.40;;
2386;SDS011;49473;50.772;8.768;2023-08-31T14:29:32;18.90;;;3.00;;
2386;SDS011;49473;50.772;8.768;2023-08-31T14:32:00;2.60;;;1.33;;
2386;SDS011;49473;50.772;8.768;2023-08-31T14:34:28;3.50;;;1.60;;
2386;SDS011;49473;50.772;8.768;2023-08-31T14:36:56;3.53;;;1.80;;
2386;SDS011;49473;50.772;8.768;2023-08-31T14:39:25;1.50;;;1.40;;
2386;SDS011;49473;50.772;8.768;2023-08-31T14:41:54;2.73;;;1.40;;
2386;SDS011;49473;50.772;8.768;2023-08-31T14:44:21;1.97;;;1.87;;
2386;SDS011;49473;50.772;8.768;2023-08-31T14:46:48;2.87;;;2.00;;
2386;SDS011;49473;50.772;8.768;2023-08-31T14:49:15;2.33;;;1.50;;
2386;SDS011;49473;50.772;8.768;2023-08-31T14:51:43;2.03;;;1.70;;
2386;SDS011;49473;50.772;8.768;2023-08-31T14:54:10;2.60;;;1.83;;
2386;SDS011;49473;50.772;8.768;2023-08-31T14:56:36;2.03;;;1.93;;